sensor_id;sensor_type;location;lat;lon;timestamp;temperature;humidity
28614;DHT22;15806;53.548;9.964;2023-11-19T00:00:00;11.10;99.90
28614;DHT22;15806;53.548;9.964;2023-11-19T00:01:40;11.10;99.90
28614;DHT22;15806;53.548;9.964;2023-11-19T00:03:21;10.70;99.90
28614;DHT22;15806;53.548;9.964;2023-11-19T00:05:01;10.90;99.90
28614;DHT22;15806;53.548;9.964;2023-11-19T00:06:42;11.20;99.90
28614;DHT22;15806;53.548;9.964;2023-11-19T00:08:22;11.20;99.90
28614;DHT22;15806;53.548;9.964;2023-11-19T00:10:03;11.20;99.90
28614;DHT22;15806;53.548;9.964;2023-11-19T00:11:43;10.80;99.90
28614;DHT22;15806;53.548;9.964;2023-11-19T00:13:24;10.70;99.90
28614;DHT22;15806;53.548;9.964;2023-11-19T00:15:05;10.90;99.90
28614;DHT22;15806;53.548;9.964;2023-11-19T00:16:46;11.30;99.90
28614;DHT22;15806;53.548;9.964;2023-11-19T00:18:26;10.80;99.90
28614;DHT22;15806;53.548;9.964;2023-11-19T00:20:07;11.20;99.90
28614;DHT22;15806;53.548;9.964;2023-11-19T00:21:48;10.80;99.90
28614;DHT22;15806;53.548;9.964;2023-11-19T00:23:28;11.20;99.90
28614;DHT22;15806;53.548;9.964;2023-11-19T00:25:10;11.40;99.90
28614;DHT22;15806;53.548;9.964;2023-11-19T00:26:50;11.40;99.90
28614;DHT22;15806;53.548;9.964;2023-11-19T00:28:32;11.20;99.90
28614;DHT22;15806;53.548;9.964;2023-11-19T00:30:13;10.90;99.90
28614;DHT22;15806;53.548;9.964;2023-11-19T00:31:53;11.40;99.90
28614;DHT22;15806;53.548;9.964;2023-11-19T00:33:34;11.50;99.90
28614;DHT22;15806;53.548;9.964;2023-11-19T00:35:14;11.20;99.90
28614;DHT22;15806;53.548;9.964;2023-11-19T00:36:55;11.60;99.90
28614;DHT22;15806;53.548;9.964;2023-11-19T00:38:35;10.80;99.90
28614;DHT22;15806;53.548;9.964;2023-11-19T00:40:16;11.40;99.90
28614;DHT22;15806;53.548;9.964;2023-11-19T00:41:57;11.00;99.90
28614;DHT22;15806;53.548;9.964;2023-11-19T00:43:37;10.80;99.90
28614;DHT22;15806;53.548;9.964;2023-11-19T00:45:17;11.00;99.90
28614;DHT22;15806;53.548;9.964;2023-11-19T00:46:58;10.90;99.90
28614;DHT22;15806;53.548;9.964;2023-11-19T00:48:39;11.40;99.90
28614;DHT22;15806;53.548;9.964;2023-11-19T00:50:20;11.60;99.90
28614;DHT22;15806;53.548;9.964;2023-11-19T00:52:00;11.60;99.90
28614;DHT22;15806;53.548;9.964;2023-11-19T00:53:41;11.00;99.90
28614;DHT22;15806;53.548;9.964;2023-11-19T00:55:21;11.70;99.90
28614;DHT22;15806;53.548;9.964;2023-11-19T00:57:02;11.70;99.90
28614;DHT22;15806;53.548;9.964;2023-11-19T00:58:43;11.50;99.90
28614;DHT22;15806;53.548;9.964;2023-11-19T01:00:23;11.00;99.90
28614;DHT22;15806;53.548;9.964;2023-11-19T01:02:04;11.00;99.90
28614;DHT22;15806;53.548;9.964;2023-11-19T01:03:44;11.10;99.90
28614;DHT22;15806;53.548;9.964;2023-11-19T01:05:25;11.80;99.90
28614;DHT22;15806;53.548;9.964;2023-11-19T01:07:05;11.70;99.90
28614;DHT22;15806;53.548;9.964;2023-11-19T01:08:46;11.20;99.90
28614;DHT22;15806;53.548;9.964;2023-11-19T01:10:26;11.40;99.90
28614;DHT22;15806;53.548;9.964;2023-11-19T01:12:07;11.10;99.90
28614;DHT22;15806;53.548;9.964;2023-11-19T01:13:48;11.50;99.90
28614;DHT22;15806;53.548;9.964;2023-11-19T01:15:28;11.30;99.90
28614;DHT22;15806;53.548;9.964;2023-11-19T01:17:09;11.50;99.90
28614;DHT22;15806;53.548;9.964;2023-11-19T01:18:50;11.30;99.90
28614;DHT22;15806;53.548;9.964;2023-11-19T01:20:30;11.70;99.90
28614;DHT22;15806;53.548;9.964;2023-11-19T01:22:11;11.70;99.90
28614;DHT22;15806;53.548;9.964;2023-11-19T01:23:51;11.60;99.90
28614;DHT22;15806;53.548;9.964;2023-11-19T01:25:32;11.70;99.90
28614;DHT22;15806;53.548;9.964;2023-11-19T01:27:12;11.50;99.90
28614;DHT22;15806;53.548;9.964;2023-11-19T01:28:53;11.70;99.90
28614;DHT22;15806;53.548;9.964;2023-11-19T01:30:33;11.60;99.90
28614;DHT22;15806;53.548;9.964;2023-11-19T01:32:14;11.70;99.90
28614;DHT22;15806;53.548;9.964;2023-11-19T01:33:54;11.90;99.90
28614;DHT22;15806;53.548;9.964;2023-11-19T01:35:35;11.70;99.90
28614;DHT22;15806;53.548;9.964;2023-11-19T01:37:15;11.50;99.90
28614;DHT22;15806;53.548;9.964;2023-11-19T01:38:56;12.00;99.90
28614;DHT22;15806;53.548;9.964;2023-11-19T01:40:37;11.50;99.90
28614;DHT22;15806;53.548;9.964;2023-11-19T01:42:17;11.50;99.90
28614;DHT22;15806;53.548;9.964;2023-11-19T01:43:58;11.80;99.90
28614;DHT22;15806;53.548;9.964;2023-11-19T01:45:39;11.80;99.90
28614;DHT22;15806;53.548;9.964;2023-11-19T01:47:20;11.70;99.90
28614;DHT22;15806;53.548;9.964;2023-11-19T01:49:00;11.50;99.90
28614;DHT22;15806;53.548;9.964;2023-11-19T01:50:42;12.00;99.90
28614;DHT22;15806;53.548;9.964;2023-11-19T01:52:23;11.50;99.90
28614;DHT22;15806;53.548;9.964;2023-11-19T01:54:04;11.80;99.90
28614;DHT22;15806;53.548;9.964;2023-11-19T01:55:46;11.80;99.90
28614;DHT22;15806;53.548;9.964;2023-11-19T01:57:27;11.90;99.90
28614;DHT22;15806;53.548;9.964;2023-11-19T01:59:10;11.50;99.90
28614;DHT22;15806;53.548;9.964;2023-11-19T02:00:51;12.00;99.90
28614;DHT22;15806;53.548;9.964;2023-11-19T02:02:31;11.90;99.90
28614;DHT22;15806;53.548;9.964;2023-11-19T02:04:12;11.60;99.90
28614;DHT22;15806;53.548;9.964;2023-11-19T02:05:53;12.00;99.90
28614;DHT22;15806;53.548;9.964;2023-11-19T02:07:33;12.00;99.90
28614;DHT22;15806;53.548;9.964;2023-11-19T02:09:14;12.20;99.90
28614;DHT22;15806;53.548;9.964;2023-11-19T02:10:54;11.70;99.90
28614;DHT22;15806;53.548;9.964;2023-11-19T02:12:35;12.20;99.90
28614;DHT22;15806;53.548;9.964;2023-11-19T02:14:16;12.00;99.90
28614;DHT22;15806;53.548;9.964;2023-11-19T02:15:56;11.70;99.90
28614;DHT22;15806;53.548;9.964;2023-11-19T02:17:37;12.00;99.90
28614;DHT22;15806;53.548;9.964;2023-11-19T02:19:20;11.80;99.90
28614;DHT22;15806;53.548;9.964;2023-11-19T02:21:01;12.30;99.90
28614;DHT22;15806;53.548;9.964;2023-11-19T02:22:43;11.80;99.90
28614;DHT22;15806;53.548;9.964;2023-11-19T02:24:26;12.00;99.90
28614;DHT22;15806;53.548;9.964;2023-11-19T02:26:18;12.30;99.90
28614;DHT22;15806;53.548;9.964;2023-11-19T02:28:01;12.10;99.90
28614;DHT22;15806;53.548;9.964;2023-11-19T02:29:42;12.20;99.90
28614;DHT22;15806;53.548;9.964;2023-11-19T02:31:22;12.00;99.90
28614;DHT22;15806;53.548;9.964;2023-11-19T02:33:03;12.10;99.90
28614;DHT22;15806;53.548;9.964;2023-11-19T02:34:43;12.00;99.90
28614;DHT22;15806;53.548;9.964;2023-11-19T02:36:24;11.90;99.90
28614;DHT22;15806;53.548;9.964;2023-11-19T02:38:04;12.00;99.90
28614;DHT22;15806;53.548;9.964;2023-11-19T02:39:45;12.10;99.90
28614;DHT22;15806;53.548;9.964;2023-11-19T02:41:25;12.20;99.90
28614;DHT22;15806;53.548;9.964;2023-11-19T02:43:06;12.20;99.90
28614;DHT22;15806;53.548;9.964;2023-11-19T02:44:46;12.30;99.90
28614;DHT22;15806;53.548;9.964;2023-11-19T02:46:26;12.00;99.90
28614;DHT22;15806;53.548;9.964;2023-11-19T02:48:07;11.90;99.90
28614;DHT22;15806;53.548;9.964;2023-11-19T02:49:47;12.40;99.90
28614;DHT22;15806;53.548;9.964;2023-11-19T02:51:28;12.40;99.90
28614;DHT22;15806;53.548;9.964;2023-11-19T02:53:08;12.40;99.90
28614;DHT22;15806;53.548;9.964;2023-11-19T02:54:49;12.30;99.90
28614;DHT22;15806;53.548;9.964;2023-11-19T02:56:29;12.00;99.90
28614;DHT22;15806;53.548;9.964;2023-11-19T02:58:10;12.20;99.90
28614;DHT22;15806;53.548;9.964;2023-11-19T02:59:50;12.00;99.90
28614;DHT22;15806;53.548;9.964;2023-11-19T03:01:31;12.30;99.90
28614;DHT22;15806;53.548;9.964;2023-11-19T03:03:11;12.10;99.90
28614;DHT22;15806;53.548;9.964;2023-11-19T03:04:52;12.20;99.90
28614;DHT22;15806;53.548;9.964;2023-11-19T03:06:32;12.50;99.90
28614;DHT22;15806;53.548;9.964;2023-11-19T03:08:14;12.30;99.90
28614;DHT22;15806;53.548;9.964;2023-11-19T03:09:54;12.60;99.90
28614;DHT22;15806;53.548;9.964;2023-11-19T03:11:35;12.30;99.90
28614;DHT22;15806;53.548;9.964;2023-11-19T03:13:15;12.70;99.90
28614;DHT22;15806;53.548;9.964;2023-11-19T03:14:56;12.60;99.90
28614;DHT22;15806;53.548;9.964;2023-11-19T03:16:37;12.50;99.90
28614;DHT22;15806;53.548;9.964;2023-11-19T03:18:17;12.70;99.90
28614;DHT22;15806;53.548;9.964;2023-11-19T03:19:58;12.80;99.90
28614;DHT22;15806;53.548;9.964;2023-11-19T03:21:38;12.70;99.90
28614;DHT22;15806;53.548;9.964;2023-11-19T03:23:18;12.40;99.90
28614;DHT22;15806;53.548;9.964;2023-11-19T03:24:59;12.40;99.90
28614;DHT22;15806;53.548;9.964;2023-11-19T03:26:40;12.50;99.90
28614;DHT22;15806;53.548;9.964;2023-11-19T03:28:20;12.60;99.90
28614;DHT22;15806;53.548;9.964;2023-11-19T03:30:02;13.00;99.90
28614;DHT22;15806;53.548;9.964;2023-11-19T03:31:43;13.20;99.90
28614;DHT22;15806;53.548;9.964;2023-11-19T03:33:23;13.00;99.90
28614;DHT22;15806;53.548;9.964;2023-11-19T03:35:04;13.40;99.90
28614;DHT22;15806;53.548;9.964;2023-11-19T03:36:45;13.10;99.90
28614;DHT22;15806;53.548;9.964;2023-11-19T03:38:25;13.00;99.90
28614;DHT22;15806;53.548;9.964;2023-11-19T03:40:06;13.20;99.90
28614;DHT22;15806;53.548;9.964;2023-11-19T03:41:47;12.80;99.90
28614;DHT22;15806;53.548;9.964;2023-11-19T03:43:27;12.80;99.90
28614;DHT22;15806;53.548;9.964;2023-11-19T03:45:08;12.70;99.90
28614;DHT22;15806;53.548;9.964;2023-11-19T03:46:48;13.00;99.90
28614;DHT22;15806;53.548;9.964;2023-11-19T03:48:29;12.50;99.90
28614;DHT22;15806;53.548;9.964;2023-11-19T03:50:09;12.90;99.90
28614;DHT22;15806;53.548;9.964;2023-11-19T03:51:50;12.80;99.90
28614;DHT22;15806;53.548;9.964;2023-11-19T03:53:30;13.10;99.90
28614;DHT22;15806;53.548;9.964;2023-11-19T03:55:11;13.10;99.90
28614;DHT22;15806;53.548;9.964;2023-11-19T03:56:51;13.00;99.90
28614;DHT22;15806;53.548;9.964;2023-11-19T03:58:32;13.10;99.90
28614;DHT22;15806;53.548;9.964;2023-11-19T04:00:13;13.00;99.90
28614;DHT22;15806;53.548;9.964;2023-11-19T04:01:53;13.00;99.90
28614;DHT22;15806;53.548;9.964;2023-11-19T04:03:34;13.10;99.90
28614;DHT22;15806;53.548;9.964;2023-11-19T04:05:14;13.10;99.90
28614;DHT22;15806;53.548;9.964;2023-11-19T04:06:55;13.30;99.90
28614;DHT22;15806;53.548;9.964;2023-11-19T04:08:36;12.90;99.90
28614;DHT22;15806;53.548;9.964;2023-11-19T04:10:16;13.10;99.90
28614;DHT22;15806;53.548;9.964;2023-11-19T04:11:57;12.90;99.90
28614;DHT22;15806;53.548;9.964;2023-11-19T04:13:38;13.30;99.90
28614;DHT22;15806;53.548;9.964;2023-11-19T04:15:18;13.40;99.90
28614;DHT22;15806;53.548;9.964;2023-11-19T04:16:59;13.20;99.90
28614;DHT22;15806;53.548;9.964;2023-11-19T04:18:39;12.80;99.90
28614;DHT22;15806;53.548;9.964;2023-11-19T04:20:20;13.10;99.90
28614;DHT22;15806;53.548;9.964;2023-11-19T04:22:00;13.40;99.90
28614;DHT22;15806;53.548;9.964;2023-11-19T04:23:40;12.90;99.90
28614;DHT22;15806;53.548;9.964;2023-11-19T04:25:21;13.00;99.90
28614;DHT22;15806;53.548;9.964;2023-11-19T04:27:01;13.40;99.90
28614;DHT22;15806;53.548;9.964;2023-11-19T04:28:42;13.30;99.90
28614;DHT22;15806;53.548;9.964;2023-11-19T04:30:22;13.30;99.90
28614;DHT22;15806;53.548;9.964;2023-11-19T04:32:03;13.00;99.90
28614;DHT22;15806;53.548;9.964;2023-11-19T04:33:44;13.10;99.90
28614;DHT22;15806;53.548;9.964;2023-11-19T04:35:24;13.50;99.90
28614;DHT22;15806;53.548;9.964;2023-11-19T04:37:05;13.50;99.90
28614;DHT22;15806;53.548;9.964;2023-11-19T04:38:45;13.20;99.90
28614;DHT22;15806;53.548;9.964;2023-11-19T04:40:26;13.50;99.90
28614;DHT22;15806;53.548;9.964;2023-11-19T04:42:06;13.60;99.90
28614;DHT22;15806;53.548;9.964;2023-11-19T04:43:47;13.50;99.90
28614;DHT22;15806;53.548;9.964;2023-11-19T04:45:27;13.60;99.90
28614;DHT22;15806;53.548;9.964;2023-11-19T04:47:08;13.40;99.90
28614;DHT22;15806;53.548;9.964;2023-11-19T04:48:48;13.60;99.90
28614;DHT22;15806;53.548;9.964;2023-11-19T04:50:29;13.50;99.90
28614;DHT22;15806;53.548;9.964;2023-11-19T04:52:09;13.40;99.90
28614;DHT22;15806;53.548;9.964;2023-11-19T04:53:50;13.30;99.90
28614;DHT22;15806;53.548;9.964;2023-11-19T04:55:30;13.70;99.90
28614;DHT22;15806;53.548;9.964;2023-11-19T04:57:11;13.70;99.90
28614;DHT22;15806;53.548;9.964;2023-11-19T04:58:51;13.70;99.90
28614;DHT22;15806;53.548;9.964;2023-11-19T05:00:32;13.40;99.90
28614;DHT22;15806;53.548;9.964;2023-11-19T05:02:13;13.80;99.90
28614;DHT22;15806;53.548;9.964;2023-11-19T05:03:53;13.60;99.90
28614;DHT22;15806;53.548;9.964;2023-11-19T05:05:34;13.60;99.90
28614;DHT22;15806;53.548;9.964;2023-11-19T05:07:14;13.70;99.90
28614;DHT22;15806;53.548;9.964;2023-11-19T05:08:56;14.20;99.90
28614;DHT22;15806;53.548;9.964;2023-11-19T05:10:36;14.10;99.90
28614;DHT22;15806;53.548;9.964;2023-11-19T05:12:17;14.00;99.90
28614;DHT22;15806;53.548;9.964;2023-11-19T05:13:58;14.50;99.90
28614;DHT22;15806;53.548;9.964;2023-11-19T05:15:38;14.50;99.90
28614;DHT22;15806;53.548;9.964;2023-11-19T05:17:19;15.00;99.90
28614;DHT22;15806;53.548;9.964;2023-11-19T05:18:59;15.10;99.90
28614;DHT22;15806;53.548;9.964;2023-11-19T05:20:40;14.80;99.90
28614;DHT22;15806;53.548;9.964;2023-11-19T05:22:20;15.40;99.90
28614;DHT22;15806;53.548;9.964;2023-11-19T05:24:01;15.90;99.90
28614;DHT22;15806;53.548;9.964;2023-11-19T05:25:42;16.00;99.90
28614;DHT22;15806;53.548;9.964;2023-11-19T05:27:22;16.10;99.90
28614;DHT22;15806;53.548;9.964;2023-11-19T05:29:03;15.90;99.90
28614;DHT22;15806;53.548;9.964;2023-11-19T05:30:43;16.30;99.90
28614;DHT22;15806;53.548;9.964;2023-11-19T05:32:24;16.30;99.90
28614;DHT22;15806;53.548;9.964;2023-11-19T05:34:04;16.90;99.90
28614;DHT22;15806;53.548;9.964;2023-11-19T05:35:45;16.70;99.90
28614;DHT22;15806;53.548;9.964;2023-11-19T05:37:25;16.60;99.90
28614;DHT22;15806;53.548;9.964;2023-11-19T05:39:06;17.20;99.90
28614;DHT22;15806;53.548;9.964;2023-11-19T05:40:46;17.20;99.90
28614;DHT22;15806;53.548;9.964;2023-11-19T05:42:27;17.60;99.90
28614;DHT22;15806;53.548;9.964;2023-11-19T05:44:07;17.30;99.90
28614;DHT22;15806;53.548;9.964;2023-11-19T05:45:48;17.90;99.90
28614;DHT22;15806;53.548;9.964;2023-11-19T05:47:28;18.10;99.90
28614;DHT22;15806;53.548;9.964;2023-11-19T05:49:09;18.20;99.90
28614;DHT22;15806;53.548;9.964;2023-11-19T05:50:49;17.70;99.90
28614;DHT22;15806;53.548;9.964;2023-11-19T05:52:30;18.00;99.90
28614;DHT22;15806;53.548;9.964;2023-11-19T05:54:10;17.70;99.90
28614;DHT22;15806;53.548;9.964;2023-11-19T05:55:51;17.90;99.90
28614;DHT22;15806;53.548;9.964;2023-11-19T05:57:31;17.90;99.90
28614;DHT22;15806;53.548;9.964;2023-11-19T05:59:12;17.90;99.90
28614;DHT22;15806;53.548;9.964;2023-11-19T06:00:53;18.30;99.90
28614;DHT22;15806;53.548;9.964;2023-11-19T06:02:34;18.30;99.90
28614;DHT22;15806;53.548;9.964;2023-11-19T06:04:14;18.40;99.90
28614;DHT22;15806;53.548;9.964;2023-11-19T06:05:55;18.30;99.90
28614;DHT22;15806;53.548;9.964;2023-11-19T06:07:35;18.10;99.90
28614;DHT22;15806;53.548;9.964;2023-11-19T06:09:16;18.50;99.90
28614;DHT22;15806;53.548;9.964;2023-11-19T06:10:56;18.20;99.90
28614;DHT22;15806;53.548;9.964;2023-11-19T06:12:37;18.30;99.90
28614;DHT22;15806;53.548;9.964;2023-11-19T06:14:18;18.10;99.90
28614;DHT22;15806;53.548;9.964;2023-11-19T06:15:59;18.40;99.90
28614;DHT22;15806;53.548;9.964;2023-11-19T06:17:39;18.20;99.90
28614;DHT22;15806;53.548;9.964;2023-11-19T06:19:20;18.40;99.90
28614;DHT22;15806;53.548;9.964;2023-11-19T06:21:00;18.60;99.90
28614;DHT22;15806;53.548;9.964;2023-11-19T06:22:41;18.50;99.90
28614;DHT22;15806;53.548;9.964;2023-11-19T06:24:21;18.50;99.90
28614;DHT22;15806;53.548;9.964;2023-11-19T06:26:02;18.40;99.90
28614;DHT22;15806;53.548;9.964;2023-11-19T06:27:42;18.60;99.90
28614;DHT22;15806;53.548;9.964;2023-11-19T06:29:23;18.40;99.90
28614;DHT22;15806;53.548;9.964;2023-11-19T06:31:03;18.50;99.90
28614;DHT22;15806;53.548;9.964;2023-11-19T06:32:44;18.40;99.90
28614;DHT22;15806;53.548;9.964;2023-11-19T06:34:25;18.60;99.90
28614;DHT22;15806;53.548;9.964;2023-11-19T06:36:06;18.30;99.90
28614;DHT22;15806;53.548;9.964;2023-11-19T06:37:46;18.50;99.90
28614;DHT22;15806;53.548;9.964;2023-11-19T06:39:27;18.50;99.90
28614;DHT22;15806;53.548;9.964;2023-11-19T06:41:08;18.40;99.90
28614;DHT22;15806;53.548;9.964;2023-11-19T06:42:48;18.10;99.90
28614;DHT22;15806;53.548;9.964;2023-11-19T06:44:29;18.30;99.90
28614;DHT22;15806;53.548;9.964;2023-11-19T06:46:19;18.40;99.90
28614;DHT22;15806;53.548;9.964;2023-11-19T06:48:03;18.00;99.90
28614;DHT22;15806;53.548;9.964;2023-11-19T06:49:44;18.50;99.90
28614;DHT22;15806;53.548;9.964;2023-11-19T06:51:25;18.30;99.90
28614;DHT22;15806;53.548;9.964;2023-11-19T06:53:05;18.00;99.90
28614;DHT22;15806;53.548;9.964;2023-11-19T06:54:46;18.30;99.90
28614;DHT22;15806;53.548;9.964;2023-11-19T06:56:26;18.20;99.90
28614;DHT22;15806;53.548;9.964;2023-11-19T06:58:07;18.30;99.90
28614;DHT22;15806;53.548;9.964;2023-11-19T06:59:47;17.90;99.90
28614;DHT22;15806;53.548;9.964;2023-11-19T07:01:28;18.10;99.90
28614;DHT22;15806;53.548;9.964;2023-11-19T07:03:08;18.20;99.90
28614;DHT22;15806;53.548;9.964;2023-11-19T07:04:49;18.00;99.90
28614;DHT22;15806;53.548;9.964;2023-11-19T07:06:29;18.10;99.90
28614;DHT22;15806;53.548;9.964;2023-11-19T07:08:10;17.80;99.90
28614;DHT22;15806;53.548;9.964;2023-11-19T07:09:50;17.90;99.90
28614;DHT22;15806;53.548;9.964;2023-11-19T07:11:31;17.70;99.90
28614;DHT22;15806;53.548;9.964;2023-11-19T07:13:11;17.70;99.90
28614;DHT22;15806;53.548;9.964;2023-11-19T07:14:52;17.80;99.90
28614;DHT22;15806;53.548;9.964;2023-11-19T07:16:33;17.80;99.90
28614;DHT22;15806;53.548;9.964;2023-11-19T07:18:14;17.70;99.90
28614;DHT22;15806;53.548;9.964;2023-11-19T07:19:54;17.30;99.90
28614;DHT22;15806;53.548;9.964;2023-11-19T07:21:35;17.30;99.90
28614;DHT22;15806;53.548;9.964;2023-11-19T07:23:16;17.70;99.90
28614;DHT22;15806;53.548;9.964;2023-11-19T07:24:56;17.50;99.90
28614;DHT22;15806;53.548;9.964;2023-11-19T07:26:42;17.70;99.90
28614;DHT22;15806;53.548;9.964;2023-11-19T07:28:22;17.40;99.90
28614;DHT22;15806;53.548;9.964;2023-11-19T07:30:03;17.50;99.90
28614;DHT22;15806;53.548;9.964;2023-11-19T07:31:44;17.20;99.90
28614;DHT22;15806;53.548;9.964;2023-11-19T07:33:24;17.40;99.90
28614;DHT22;15806;53.548;9.964;2023-11-19T07:35:05;17.20;99.90
28614;DHT22;15806;53.548;9.964;2023-11-19T07:36:46;17.20;99.90
28614;DHT22;15806;53.548;9.964;2023-11-19T07:38:26;17.20;99.90
28614;DHT22;15806;53.548;9.964;2023-11-19T07:40:07;17.20;99.90
28614;DHT22;15806;53.548;9.964;2023-11-19T07:41:48;17.20;99.90
28614;DHT22;15806;53.548;9.964;2023-11-19T07:43:28;17.30;99.90
28614;DHT22;15806;53.548;9.964;2023-11-19T07:45:09;17.60;99.90
28614;DHT22;15806;53.548;9.964;2023-11-19T07:46:50;17.30;99.90
28614;DHT22;15806;53.548;9.964;2023-11-19T07:48:30;17.80;99.90
28614;DHT22;15806;53.548;9.964;2023-11-19T07:50:11;17.50;99.90
28614;DHT22;15806;53.548;9.964;2023-11-19T07:51:51;17.50;99.90
28614;DHT22;15806;53.548;9.964;2023-11-19T07:53:32;17.80;99.90
28614;DHT22;15806;53.548;9.964;2023-11-19T07:55:12;17.50;99.90
28614;DHT22;15806;53.548;9.964;2023-11-19T07:56:53;17.70;99.90
28614;DHT22;15806;53.548;9.964;2023-11-19T07:58:33;17.20;99.90
28614;DHT22;15806;53.548;9.964;2023-11-19T08:00:14;17.50;99.90
28614;DHT22;15806;53.548;9.964;2023-11-19T08:01:55;17.60;99.90
28614;DHT22;15806;53.548;9.964;2023-11-19T08:03:35;17.50;99.90
28614;DHT22;15806;53.548;9.964;2023-11-19T08:05:16;17.10;99.90
28614;DHT22;15806;53.548;9.964;2023-11-19T08:06:56;17.00;99.90
28614;DHT22;15806;53.548;9.964;2023-11-19T08:08:37;16.90;99.90
28614;DHT22;15806;53.548;9.964;2023-11-19T08:10:17;17.30;99.90
28614;DHT22;15806;53.548;9.964;2023-11-19T08:11:58;17.20;99.90
28614;DHT22;15806;53.548;9.964;2023-11-19T08:13:38;17.00;99.90
28614;DHT22;15806;53.548;9.964;2023-11-19T08:15:19;17.00;99.90
28614;DHT22;15806;53.548;9.964;2023-11-19T08:16:59;17.10;99.90
28614;DHT22;15806;53.548;9.964;2023-11-19T08:18:42;16.70;99.90
28614;DHT22;15806;53.548;9.964;2023-11-19T08:20:23;16.70;99.90
28614;DHT22;15806;53.548;9.964;2023-11-19T08:22:03;17.00;99.90
28614;DHT22;15806;53.548;9.964;2023-11-19T08:23:44;16.90;99.90
28614;DHT22;15806;53.548;9.964;2023-11-19T08:25:24;16.80;99.90
28614;DHT22;15806;53.548;9.964;2023-11-19T08:27:05;16.90;99.90
28614;DHT22;15806;53.548;9.964;2023-11-19T08:28:45;16.40;99.90
28614;DHT22;15806;53.548;9.964;2023-11-19T08:30:26;16.40;99.90
28614;DHT22;15806;53.548;9.964;2023-11-19T08:32:07;16.60;99.90
28614;DHT22;15806;53.548;9.964;2023-11-19T08:33:47;16.60;99.90
28614;DHT22;15806;53.548;9.964;2023-11-19T08:35:28;16.30;99.90
28614;DHT22;15806;53.548;9.964;2023-11-19T08:37:09;16.20;99.90
28614;DHT22;15806;53.548;9.964;2023-11-19T08:38:49;16.10;99.90
28614;DHT22;15806;53.548;9.964;2023-11-19T08:40:30;16.50;99.90
28614;DHT22;15806;53.548;9.964;2023-11-19T08:42:10;16.10;99.90
28614;DHT22;15806;53.548;9.964;2023-11-19T08:43:51;16.50;99.90
28614;DHT22;15806;53.548;9.964;2023-11-19T08:45:31;16.40;99.90
28614;DHT22;15806;53.548;9.964;2023-11-19T08:47:11;16.30;99.90
28614;DHT22;15806;53.548;9.964;2023-11-19T08:48:52;16.40;99.90
28614;DHT22;15806;53.548;9.964;2023-11-19T08:50:32;16.30;99.90
28614;DHT22;15806;53.548;9.964;2023-11-19T08:52:13;16.30;99.90
28614;DHT22;15806;53.548;9.964;2023-11-19T08:53:53;16.40;99.90
28614;DHT22;15806;53.548;9.964;2023-11-19T08:55:34;16.30;99.90
28614;DHT22;15806;53.548;9.964;2023-11-19T08:57:14;16.30;99.90
28614;DHT22;15806;53.548;9.964;2023-11-19T08:58:55;16.30;99.90
28614;DHT22;15806;53.548;9.964;2023-11-19T09:00:35;16.10;99.90
28614;DHT22;15806;53.548;9.964;2023-11-19T09:02:16;16.30;99.90
28614;DHT22;15806;53.548;9.964;2023-11-19T09:03:56;16.00;99.90
28614;DHT22;15806;53.548;9.964;2023-11-19T09:05:37;16.20;99.90
28614;DHT22;15806;53.548;9.964;2023-11-19T09:07:17;16.10;99.90
28614;DHT22;15806;53.548;9.964;2023-11-19T09:08:58;16.10;99.90
28614;DHT22;15806;53.548;9.964;2023-11-19T09:10:38;16.00;99.90
28614;DHT22;15806;53.548;9.964;2023-11-19T09:12:19;15.90;99.90
28614;DHT22;15806;53.548;9.964;2023-11-19T09:13:59;15.70;99.90
28614;DHT22;15806;53.548;9.964;2023-11-19T09:15:40;15.80;99.90
28614;DHT22;15806;53.548;9.964;2023-11-19T09:17:20;15.60;99.90
28614;DHT22;15806;53.548;9.964;2023-11-19T09:19:01;15.50;99.90
28614;DHT22;15806;53.548;9.964;2023-11-19T09:20:41;15.30;99.90
28614;DHT22;15806;53.548;9.964;2023-11-19T09:22:22;15.20;99.90
28614;DHT22;15806;53.548;9.964;2023-11-19T09:24:02;15.10;99.90
28614;DHT22;15806;53.548;9.964;2023-11-19T09:25:43;14.90;99.90
28614;DHT22;15806;53.548;9.964;2023-11-19T09:27:24;14.90;99.90
28614;DHT22;15806;53.548;9.964;2023-11-19T09:29:04;14.80;99.90
28614;DHT22;15806;53.548;9.964;2023-11-19T09:30:45;14.80;99.90
28614;DHT22;15806;53.548;9.964;2023-11-19T09:32:25;14.80;99.90
28614;DHT22;15806;53.548;9.964;2023-11-19T09:34:06;14.70;99.90
28614;DHT22;15806;53.548;9.964;2023-11-19T09:35:46;14.80;99.90
28614;DHT22;15806;53.548;9.964;2023-11-19T09:37:27;14.70;99.90
28614;DHT22;15806;53.548;9.964;2023-11-19T09:39:07;14.70;99.90
28614;DHT22;15806;53.548;9.964;2023-11-19T09:40:48;14.60;99.90
28614;DHT22;15806;53.548;9.964;2023-11-19T09:42:28;14.60;99.90
28614;DHT22;15806;53.548;9.964;2023-11-19T09:44:09;14.50;99.90
28614;DHT22;15806;53.548;9.964;2023-11-19T09:45:51;14.40;99.90
28614;DHT22;15806;53.548;9.964;2023-11-19T09:47:31;14.30;99.90
28614;DHT22;15806;53.548;9.964;2023-11-19T09:49:13;14.20;99.90
28614;DHT22;15806;53.548;9.964;2023-11-19T09:50:53;14.10;99.90
28614;DHT22;15806;53.548;9.964;2023-11-19T09:52:34;14.10;99.90
28614;DHT22;15806;53.548;9.964;2023-11-19T09:54:15;14.00;99.90
28614;DHT22;15806;53.548;9.964;2023-11-19T09:55:55;13.90;99.90
28614;DHT22;15806;53.548;9.964;2023-11-19T09:57:38;13.90;99.90
28614;DHT22;15806;53.548;9.964;2023-11-19T09:59:19;13.80;99.90
28614;DHT22;15806;53.548;9.964;2023-11-19T10:01:00;13.80;99.90
28614;DHT22;15806;53.548;9.964;2023-11-19T10:02:41;13.80;99.90
28614;DHT22;15806;53.548;9.964;2023-11-19T10:04:22;13.80;99.90
28614;DHT22;15806;53.548;9.964;2023-11-19T10:06:03;13.70;99.90
28614;DHT22;15806;53.548;9.964;2023-11-19T10:07:43;13.70;99.90
28614;DHT22;15806;53.548;9.964;2023-11-19T10:09:24;13.70;99.90
28614;DHT22;15806;53.548;9.964;2023-11-19T10:11:08;13.70;99.90
28614;DHT22;15806;53.548;9.964;2023-11-19T10:12:51;13.70;99.90
28614;DHT22;15806;53.548;9.964;2023-11-19T10:14:31;13.70;99.90
28614;DHT22;15806;53.548;9.964;2023-11-19T10:16:12;13.70;99.90
28614;DHT22;15806;53.548;9.964;2023-11-19T10:17:57;13.70;99.90
28614;DHT22;15806;53.548;9.964;2023-11-19T10:19:40;13.70;99.90
28614;DHT22;15806;53.548;9.964;2023-11-19T10:21:20;13.70;99.90
28614;DHT22;15806;53.548;9.964;2023-11-19T10:23:01;13.70;99.90
28614;DHT22;15806;53.548;9.964;2023-11-19T10:24:41;13.70;99.90
28614;DHT22;15806;53.548;9.964;2023-11-19T10:26:22;13.70;99.90
28614;DHT22;15806;53.548;9.964;2023-11-19T10:28:03;13.60;99.90
28614;DHT22;15806;53.548;9.964;2023-11-19T10:29:47;13.60;99.90
28614;DHT22;15806;53.548;9.964;2023-11-19T10:31:28;13.70;99.90
28614;DHT22;15806;53.548;9.964;2023-11-19T10:33:13;13.70;99.90
28614;DHT22;15806;53.548;9.964;2023-11-19T10:35:05;13.70;99.90